sensor_id;sensor_type;location;lat;lon;timestamp;P1;durP1;ratioP1;P2;durP2;ratioP2
71312;SDS011;59104;44.738;20.612;2022-08-19T00:01:26;6.15;;;4.50;;
71312;SDS011;59104;44.738;20.612;2022-08-19T00:03:55;5.50;;;4.57;;
71312;SDS011;59104;44.738;20.612;2022-08-19T00:06:20;4.13;;;3.45;;
71312;SDS011;59104;44.738;20.612;2022-08-19T00:08:46;4.65;;;4.20;;
71312;SDS011;59104;44.738;20.612;2022-08-19T00:11:11;7.30;;;4.25;;
71312;SDS011;59104;44.738;20.612;2022-08-19T00:13:37;4.85;;;4.32;;
71312;SDS011;59104;44.738;20.612;2022-08-19T00:16:04;4.78;;;3.83;;
71312;SDS011;59104;44.738;20.612;2022-08-19T00:18:31;5.85;;;4.80;;
71312;SDS011;59104;44.738;20.612;2022-08-19T00:20:56;5.38;;;4.88;;
71312;SDS011;59104;44.738;20.612;2022-08-19T00:23:22;6.47;;;4.53;;
71312;SDS011;59104;44.738;20.612;2022-08-19T00:25:47;6.68;;;5.32;;
71312;SDS011;59104;44.738;20.612;2022-08-19T00:28:13;5.15;;;4.65;;
71312;SDS011;59104;44.738;20.612;2022-08-19T00:30:38;5.88;;;4.60;;
71312;SDS011;59104;44.738;20.612;2022-08-19T00:33:04;5.75;;;4.82;;
71312;SDS011;59104;44.738;20.612;2022-08-19T00:35:29;6.38;;;4.63;;
71312;SDS011;59104;44.738;20.612;2022-08-19T00:37:55;4.68;;;4.20;;
71312;SDS011;59104;44.738;20.612;2022-08-19T00:40:20;8.00;;;5.18;;
71312;SDS011;59104;44.738;20.612;2022-08-19T00:42:46;4.10;;;3.70;;
71312;SDS011;59104;44.738;20.612;2022-08-19T00:45:13;5.20;;;4.70;;
71312;SDS011;59104;44.738;20.612;2022-08-19T00:47:39;6.45;;;4.80;;
71312;SDS011;59104;44.738;20.612;2022-08-19T00:50:05;6.13;;;4.65;;
71312;SDS011;59104;44.738;20.612;2022-08-19T00:52:33;6.75;;;4.30;;
71312;SDS011;59104;44.738;20.612;2022-08-19T00:55:00;5.97;;;3.95;;
71312;SDS011;59104;44.738;20.612;2022-08-19T00:57:28;5.35;;;4.55;;
71312;SDS011;59104;44.738;20.612;2022-08-19T00:59:54;5.25;;;4.35;;
71312;SDS011;59104;44.738;20.612;2022-08-19T01:02:20;7.57;;;4.15;;
71312;SDS011;59104;44.738;20.612;2022-08-19T01:04:46;4.97;;;4.47;;
71312;SDS011;59104;44.738;20.612;2022-08-19T01:07:12;5.13;;;4.35;;
71312;SDS011;59104;44.738;20.612;2022-08-19T01:09:37;5.50;;;4.40;;
71312;SDS011;59104;44.738;20.612;2022-08-19T01:12:03;5.60;;;4.43;;
71312;SDS011;59104;44.738;20.612;2022-08-19T01:14:28;5.78;;;4.65;;
71312;SDS011;59104;44.738;20.612;2022-08-19T01:16:55;5.10;;;4.60;;
71312;SDS011;59104;44.738;20.612;2022-08-19T01:21:49;6.53;;;5.22;;
71312;SDS011;59104;44.738;20.612;2022-08-19T01:24:16;8.70;;;5.60;;
71312;SDS011;59104;44.738;20.612;2022-08-19T01:26:42;5.75;;;5.03;;
71312;SDS011;59104;44.738;20.612;2022-08-19T01:29:09;6.78;;;5.53;;
71312;SDS011;59104;44.738;20.612;2022-08-19T01:31:34;7.60;;;5.88;;
71312;SDS011;59104;44.738;20.612;2022-08-19T01:34:00;10.38;;;6.22;;
71312;SDS011;59104;44.738;20.612;2022-08-19T01:36:28;5.57;;;4.95;;
71312;SDS011;59104;44.738;20.612;2022-08-19T01:38:53;7.60;;;5.38;;
71312;SDS011;59104;44.738;20.612;2022-08-19T01:41:19;7.00;;;5.82;;
71312;SDS011;59104;44.738;20.612;2022-08-19T01:43:45;7.05;;;5.85;;
71312;SDS011;59104;44.738;20.612;2022-08-19T01:46:11;6.57;;;5.88;;
71312;SDS011;59104;44.738;20.612;2022-08-19T01:48:38;7.00;;;5.85;;
71312;SDS011;59104;44.738;20.612;2022-08-19T01:51:04;8.23;;;6.30;;
71312;SDS011;59104;44.738;20.612;2022-08-19T01:53:30;9.05;;;6.72;;
71312;SDS011;59104;44.738;20.612;2022-08-19T01:55:56;9.27;;;6.80;;
71312;SDS011;59104;44.738;20.612;2022-08-19T01:58:22;7.30;;;6.10;;
71312;SDS011;59104;44.738;20.612;2022-08-19T02:00:49;9.75;;;6.32;;
71312;SDS011;59104;44.738;20.612;2022-08-19T02:03:14;10.75;;;6.78;;
71312;SDS011;59104;44.738;20.612;2022-08-19T02:05:42;6.90;;;6.05;;
71312;SDS011;59104;44.738;20.612;2022-08-19T02:08:08;7.78;;;6.20;;
71312;SDS011;59104;44.738;20.612;2022-08-19T02:10:37;6.95;;;5.50;;
71312;SDS011;59104;44.738;20.612;2022-08-19T02:13:03;8.77;;;6.13;;
71312;SDS011;59104;44.738;20.612;2022-08-19T02:15:28;9.13;;;6.60;;
71312;SDS011;59104;44.738;20.612;2022-08-19T02:17:54;6.53;;;5.47;;
71312;SDS011;59104;44.738;20.612;2022-08-19T02:20:19;9.38;;;5.80;;
71312;SDS011;59104;44.738;20.612;2022-08-19T02:22:45;8.18;;;6.15;;
71312;SDS011;59104;44.738;20.612;2022-08-19T02:25:11;7.78;;;5.90;;
71312;SDS011;59104;44.738;20.612;2022-08-19T02:27:37;6.55;;;5.45;;
71312;SDS011;59104;44.738;20.612;2022-08-19T02:30:04;6.85;;;5.85;;
71312;SDS011;59104;44.738;20.612;2022-08-19T02:32:30;6.82;;;6.00;;
71312;SDS011;59104;44.738;20.612;2022-08-19T02:34:56;9.55;;;6.50;;
71312;SDS011;59104;44.738;20.612;2022-08-19T02:37:21;5.68;;;5.07;;
71312;SDS011;59104;44.738;20.612;2022-08-19T02:40:05;9.18;;;6.35;;
71312;SDS011;59104;44.738;20.612;2022-08-19T02:42:32;10.55;;;6.28;;
71312;SDS011;59104;44.738;20.612;2022-08-19T02:44:57;9.50;;;6.63;;
71312;SDS011;59104;44.738;20.612;2022-08-19T02:47:23;8.15;;;6.50;;
71312;SDS011;59104;44.738;20.612;2022-08-19T02:49:48;7.40;;;6.53;;
71312;SDS011;59104;44.738;20.612;2022-08-19T02:52:16;9.68;;;6.88;;
71312;SDS011;59104;44.738;20.612;2022-08-19T02:54:42;10.05;;;6.68;;
71312;SDS011;59104;44.738;20.612;2022-08-19T02:57:08;9.43;;;6.20;;
71312;SDS011;59104;44.738;20.612;2022-08-19T02:59:34;9.02;;;6.30;;
71312;SDS011;59104;44.738;20.612;2022-08-19T03:01:59;7.97;;;6.38;;
71312;SDS011;59104;44.738;20.612;2022-08-19T03:04:25;9.05;;;7.10;;
71312;SDS011;59104;44.738;20.612;2022-08-19T03:06:50;8.10;;;6.45;;
71312;SDS011;59104;44.738;20.612;2022-08-19T03:09:17;8.27;;;6.22;;
71312;SDS011;59104;44.738;20.612;2022-08-19T03:11:43;9.77;;;6.38;;
71312;SDS011;59104;44.738;20.612;2022-08-19T03:14:09;7.20;;;5.38;;
71312;SDS011;59104;44.738;20.612;2022-08-19T03:16:39;8.02;;;5.90;;
71312;SDS011;59104;44.738;20.612;2022-08-19T03:19:05;5.93;;;5.30;;
71312;SDS011;59104;44.738;20.612;2022-08-19T03:21:32;7.90;;;4.97;;
71312;SDS011;59104;44.738;20.612;2022-08-19T03:23:58;6.88;;;5.38;;
71312;SDS011;59104;44.738;20.612;2022-08-19T03:26:24;7.18;;;5.22;;
71312;SDS011;59104;44.738;20.612;2022-08-19T03:28:50;7.35;;;6.10;;
71312;SDS011;59104;44.738;20.612;2022-08-19T03:31:16;9.60;;;6.95;;
71312;SDS011;59104;44.738;20.612;2022-08-19T03:33:42;7.68;;;6.13;;
71312;SDS011;59104;44.738;20.612;2022-08-19T03:36:09;10.68;;;6.68;;
71312;SDS011;59104;44.738;20.612;2022-08-19T03:38:39;13.50;;;6.68;;
71312;SDS011;59104;44.738;20.612;2022-08-19T03:41:06;11.30;;;5.90;;
71312;SDS011;59104;44.738;20.612;2022-08-19T03:43:36;10.52;;;5.82;;
71312;SDS011;59104;44.738;20.612;2022-08-19T03:46:03;6.57;;;5.80;;
71312;SDS011;59104;44.738;20.612;2022-08-19T03:48:29;8.43;;;5.75;;
71312;SDS011;59104;44.738;20.612;2022-08-19T03:50:56;7.38;;;5.75;;
71312;SDS011;59104;44.738;20.612;2022-08-19T03:53:22;8.10;;;6.55;;
71312;SDS011;59104;44.738;20.612;2022-08-19T03:55:48;6.38;;;5.50;;
71312;SDS011;59104;44.738;20.612;2022-08-19T03:58:13;7.78;;;6.47;;
71312;SDS011;59104;44.738;20.612;2022-08-19T04:00:41;8.55;;;6.10;;
71312;SDS011;59104;44.738;20.612;2022-08-19T04:03:06;8.48;;;5.72;;
71312;SDS011;59104;44.738;20.612;2022-08-19T04:05:32;8.18;;;6.20;;
71312;SDS011;59104;44.738;20.612;2022-08-19T04:07:57;8.88;;;6.20;;
71312;SDS011;59104;44.738;20.612;2022-08-19T04:10:24;7.93;;;6.38;;
71312;SDS011;59104;44.738;20.612;2022-08-19T04:12:49;7.43;;;5.90;;
71312;SDS011;59104;44.738;20.612;2022-08-19T04:15:15;6.53;;;5.82;;
71312;SDS011;59104;44.738;20.612;2022-08-19T04:17:40;10.00;;;5.90;;
71312;SDS011;59104;44.738;20.612;2022-08-19T04:20:06;9.77;;;6.30;;
71312;SDS011;59104;44.738;20.612;2022-08-19T04:22:32;8.43;;;5.90;;
71312;SDS011;59104;44.738;20.612;2022-08-19T04:24:58;9.35;;;5.97;;
71312;SDS011;59104;44.738;20.612;2022-08-19T04:27:23;9.25;;;6.72;;
71312;SDS011;59104;44.738;20.612;2022-08-19T04:29:48;9.95;;;6.43;;
71312;SDS011;59104;44.738;20.612;2022-08-19T04:32:14;8.55;;;6.50;;
71312;SDS011;59104;44.738;20.612;2022-08-19T04:34:40;8.60;;;6.45;;
71312;SDS011;59104;44.738;20.612;2022-08-19T04:37:07;7.70;;;5.43;;
71312;SDS011;59104;44.738;20.612;2022-08-19T04:39:37;7.63;;;5.95;;
71312;SDS011;59104;44.738;20.612;2022-08-19T04:42:21;6.15;;;5.45;;
71312;SDS011;59104;44.738;20.612;2022-08-19T04:45:06;8.90;;;6.88;;
71312;SDS011;59104;44.738;20.612;2022-08-19T04:47:31;10.80;;;6.65;;
71312;SDS011;59104;44.738;20.612;2022-08-19T04:49:58;7.57;;;6.47;;
71312;SDS011;59104;44.738;20.612;2022-08-19T04:52:23;9.35;;;6.63;;
71312;SDS011;59104;44.738;20.612;2022-08-19T04:54:49;8.40;;;6.40;;
71312;SDS011;59104;44.738;20.612;2022-08-19T04:57:14;9.10;;;6.22;;
71312;SDS011;59104;44.738;20.612;2022-08-19T04:59:40;8.07;;;6.15;;
71312;SDS011;59104;44.738;20.612;2022-08-19T05:02:06;9.00;;;5.60;;
71312;SDS011;59104;44.738;20.612;2022-08-19T05:04:32;14.70;;;6.80;;
71312;SDS011;59104;44.738;20.612;2022-08-19T05:06:59;12.75;;;6.80;;
71312;SDS011;59104;44.738;20.612;2022-08-19T05:09:25;13.35;;;7.55;;
71312;SDS011;59104;44.738;20.612;2022-08-19T05:11:51;12.85;;;7.38;;
71312;SDS011;59104;44.738;20.612;2022-08-19T05:14:18;10.93;;;7.25;;
71312;SDS011;59104;44.738;20.612;2022-08-19T05:16:47;11.18;;;7.38;;
71312;SDS011;59104;44.738;20.612;2022-08-19T05:19:12;10.80;;;7.47;;
71312;SDS011;59104;44.738;20.612;2022-08-19T05:21:56;14.00;;;8.13;;
71312;SDS011;59104;44.738;20.612;2022-08-19T05:24:40;10.53;;;7.27;;
71312;SDS011;59104;44.738;20.612;2022-08-19T05:27:06;10.27;;;7.55;;
71312;SDS011;59104;44.738;20.612;2022-08-19T05:29:32;10.57;;;6.97;;
71312;SDS011;59104;44.738;20.612;2022-08-19T05:31:59;10.35;;;6.78;;
71312;SDS011;59104;44.738;20.612;2022-08-19T05:34:25;10.32;;;7.38;;
71312;SDS011;59104;44.738;20.612;2022-08-19T05:36:55;11.98;;;7.95;;
71312;SDS011;59104;44.738;20.612;2022-08-19T05:39:23;9.32;;;6.43;;
71312;SDS011;59104;44.738;20.612;2022-08-19T05:41:49;9.80;;;6.95;;
71312;SDS011;59104;44.738;20.612;2022-08-19T05:44:16;9.82;;;6.82;;
71312;SDS011;59104;44.738;20.612;2022-08-19T05:46:44;7.18;;;5.60;;
71312;SDS011;59104;44.738;20.612;2022-08-19T05:49:13;7.47;;;6.03;;
71312;SDS011;59104;44.738;20.612;2022-08-19T05:51:38;13.45;;;7.18;;
71312;SDS011;59104;44.738;20.612;2022-08-19T05:54:04;10.75;;;6.97;;
71312;SDS011;59104;44.738;20.612;2022-08-19T05:56:30;7.72;;;5.97;;
71312;SDS011;59104;44.738;20.612;2022-08-19T05:58:56;9.38;;;5.70;;
71312;SDS011;59104;44.738;20.612;2022-08-19T06:01:23;7.50;;;5.65;;
71312;SDS011;59104;44.738;20.612;2022-08-19T06:03:49;7.85;;;5.72;;
71312;SDS011;59104;44.738;20.612;2022-08-19T06:06:15;8.35;;;6.47;;
71312;SDS011;59104;44.738;20.612;2022-08-19T06:08:42;9.52;;;6.63;;
71312;SDS011;59104;44.738;20.612;2022-08-19T06:11:24;7.72;;;6.90;;
71312;SDS011;59104;44.738;20.612;2022-08-19T06:13:51;9.63;;;6.60;;
71312;SDS011;59104;44.738;20.612;2022-08-19T06:16:18;9.43;;;6.93;;
71312;SDS011;59104;44.738;20.612;2022-08-19T06:18:51;8.32;;;6.80;;
71312;SDS011;59104;44.738;20.612;2022-08-19T06:21:18;14.27;;;10.20;;
71312;SDS011;59104;44.738;20.612;2022-08-19T06:23:44;12.85;;;9.40;;
71312;SDS011;59104;44.738;20.612;2022-08-19T06:26:14;14.18;;;9.35;;
71312;SDS011;59104;44.738;20.612;2022-08-19T06:28:40;11.40;;;8.45;;
71312;SDS011;59104;44.738;20.612;2022-08-19T06:31:08;11.85;;;7.55;;
71312;SDS011;59104;44.738;20.612;2022-08-19T06:33:35;9.52;;;7.35;;
71312;SDS011;59104;44.738;20.612;2022-08-19T06:36:01;7.70;;;6.75;;
71312;SDS011;59104;44.738;20.612;2022-08-19T06:38:26;9.52;;;6.78;;
71312;SDS011;59104;44.738;20.612;2022-08-19T06:40:59;9.00;;;6.15;;
71312;SDS011;59104;44.738;20.612;2022-08-19T06:43:25;11.05;;;6.68;;
71312;SDS011;59104;44.738;20.612;2022-08-19T06:45:50;8.98;;;6.35;;
71312;SDS011;59104;44.738;20.612;2022-08-19T06:48:17;8.23;;;5.70;;
71312;SDS011;59104;44.738;20.612;2022-08-19T06:50:43;6.90;;;4.78;;
71312;SDS011;59104;44.738;20.612;2022-08-19T06:53:08;6.70;;;4.72;;
71312;SDS011;59104;44.738;20.612;2022-08-19T06:55:34;6.00;;;4.65;;
71312;SDS011;59104;44.738;20.612;2022-08-19T06:58:03;5.88;;;4.95;;
71312;SDS011;59104;44.738;20.612;2022-08-19T07:00:28;5.93;;;4.32;;
71312;SDS011;59104;44.738;20.612;2022-08-19T07:02:54;7.50;;;5.40;;
71312;SDS011;59104;44.738;20.612;2022-08-19T07:05:20;7.07;;;5.80;;
71312;SDS011;59104;44.738;20.612;2022-08-19T07:07:46;8.45;;;6.15;;
71312;SDS011;59104;44.738;20.612;2022-08-19T07:10:11;7.93;;;5.90;;
71312;SDS011;59104;44.738;20.612;2022-08-19T07:12:37;10.27;;;5.55;;
71312;SDS011;59104;44.738;20.612;2022-08-19T07:15:03;10.68;;;6.05;;
71312;SDS011;59104;44.738;20.612;2022-08-19T07:17:29;12.95;;;7.43;;
71312;SDS011;59104;44.738;20.612;2022-08-19T07:19:54;9.00;;;6.20;;
71312;SDS011;59104;44.738;20.612;2022-08-19T07:22:20;8.68;;;5.57;;
71312;SDS011;59104;44.738;20.612;2022-08-19T07:24:47;12.48;;;7.47;;
71312;SDS011;59104;44.738;20.612;2022-08-19T07:27:14;22.35;;;11.00;;
71312;SDS011;59104;44.738;20.612;2022-08-19T07:29:39;18.92;;;8.40;;
71312;SDS011;59104;44.738;20.612;2022-08-19T07:32:05;14.27;;;8.65;;
71312;SDS011;59104;44.738;20.612;2022-08-19T07:34:31;13.13;;;7.13;;
71312;SDS011;59104;44.738;20.612;2022-08-19T07:36:59;15.88;;;8.68;;
71312;SDS011;59104;44.738;20.612;2022-08-19T07:39:26;19.42;;;8.57;;
71312;SDS011;59104;44.738;20.612;2022-08-19T07:41:53;13.25;;;7.07;;
71312;SDS011;59104;44.738;20.612;2022-08-19T07:44:19;12.10;;;7.47;;
71312;SDS011;59104;44.738;20.612;2022-08-19T07:46:47;19.08;;;8.65;;
71312;SDS011;59104;44.738;20.612;2022-08-19T07:49:13;15.25;;;8.07;;
71312;SDS011;59104;44.738;20.612;2022-08-19T07:51:48;11.15;;;7.18;;
71312;SDS011;59104;44.738;20.612;2022-08-19T07:54:14;8.60;;;5.75;;
71312;SDS011;59104;44.738;20.612;2022-08-19T07:56:40;14.35;;;7.88;;
71312;SDS011;59104;44.738;20.612;2022-08-19T07:59:05;14.98;;;7.80;;
71312;SDS011;59104;44.738;20.612;2022-08-19T08:01:31;17.33;;;7.85;;
71312;SDS011;59104;44.738;20.612;2022-08-19T08:03:56;11.98;;;6.93;;
71312;SDS011;59104;44.738;20.612;2022-08-19T08:06:40;12.70;;;7.88;;
71312;SDS011;59104;44.738;20.612;2022-08-19T08:09:27;15.13;;;7.93;;
71312;SDS011;59104;44.738;20.612;2022-08-19T08:11:55;9.90;;;6.32;;
71312;SDS011;59104;44.738;20.612;2022-08-19T08:14:30;11.98;;;6.07;;
71312;SDS011;59104;44.738;20.612;2022-08-19T08:16:56;14.15;;;7.00;;
71312;SDS011;59104;44.738;20.612;2022-08-19T08:19:22;7.88;;;6.22;;
71312;SDS011;59104;44.738;20.612;2022-08-19T08:21:48;11.50;;;6.53;;
71312;SDS011;59104;44.738;20.612;2022-08-19T08:24:14;8.00;;;5.25;;
71312;SDS011;59104;44.738;20.612;2022-08-19T08:26:40;9.00;;;5.30;;
71312;SDS011;59104;44.738;20.612;2022-08-19T08:29:06;9.80;;;6.10;;
71312;SDS011;59104;44.738;20.612;2022-08-19T08:31:33;7.50;;;5.65;;
71312;SDS011;59104;44.738;20.612;2022-08-19T08:33:59;8.23;;;5.20;;
71312;SDS011;59104;44.738;20.612;2022-08-19T08:36:24;9.48;;;5.90;;
71312;SDS011;59104;44.738;20.612;2022-08-19T08:38:50;8.75;;;5.50;;
71312;SDS011;59104;44.738;20.612;2022-08-19T08:43:45;8.27;;;6.03;;
71312;SDS011;59104;44.738;20.612;2022-08-19T08:46:15;5.85;;;5.22;;
71312;SDS011;59104;44.738;20.612;2022-08-19T08:48:49;9.70;;;6.47;;
71312;SDS011;59104;44.738;20.612;2022-08-19T08:51:17;16.08;;;5.68;;
71312;SDS011;59104;44.738;20.612;2022-08-19T08:53:44;7.15;;;5.25;;
71312;SDS011;59104;44.738;20.612;2022-08-19T08:56:10;8.10;;;5.15;;
71312;SDS011;59104;44.738;20.612;2022-08-19T08:58:57;12.98;;;5.82;;
71312;SDS011;59104;44.738;20.612;2022-08-19T09:01:24;9.77;;;5.82;;
71312;SDS011;59104;44.738;20.612;2022-08-19T09:03:49;12.23;;;6.45;;
71312;SDS011;59104;44.738;20.612;2022-08-19T09:06:22;7.88;;;5.10;;
71312;SDS011;59104;44.738;20.612;2022-08-19T09:11:28;8.60;;;5.90;;
71312;SDS011;59104;44.738;20.612;2022-08-19T09:14:01;8.02;;;5.50;;
71312;SDS011;59104;44.738;20.612;2022-08-19T09:16:28;8.05;;;5.40;;
71312;SDS011;59104;44.738;20.612;2022-08-19T09:18:55;7.55;;;5.30;;
71312;SDS011;59104;44.738;20.612;2022-08-19T09:21:23;6.72;;;5.13;;
71312;SDS011;59104;44.738;20.612;2022-08-19T09:23:50;7.90;;;5.68;;
71312;SDS011;59104;44.738;20.612;2022-08-19T09:26:17;8.48;;;5.30;;
71312;SDS011;59104;44.738;20.612;2022-08-19T09:28:44;8.95;;;4.97;;
71312;SDS011;59104;44.738;20.612;2022-08-19T09:31:10;7.40;;;5.00;;
71312;SDS011;59104;44.738;20.612;2022-08-19T09:33:36;12.15;;;5.45;;
71312;SDS011;59104;44.738;20.612;2022-08-19T09:36:03;9.80;;;5.45;;
71312;SDS011;59104;44.738;20.612;2022-08-19T09:38:28;7.88;;;5.22;;
71312;SDS011;59104;44.738;20.612;2022-08-19T09:40:54;6.50;;;4.90;;
71312;SDS011;59104;44.738;20.612;2022-08-19T09:43:19;8.35;;;5.53;;
71312;SDS011;59104;44.738;20.612;2022-08-19T09:45:45;7.47;;;5.68;;
71312;SDS011;59104;44.738;20.612;2022-08-19T09:48:10;7.32;;;5.60;;
71312;SDS011;59104;44.738;20.612;2022-08-19T09:50:36;6.28;;;4.90;;
71312;SDS011;59104;44.738;20.612;2022-08-19T09:53:03;6.63;;;5.22;;
71312;SDS011;59104;44.738;20.612;2022-08-19T09:55:30;7.28;;;4.95;;
71312;SDS011;59104;44.738;20.612;2022-08-19T09:57:56;8.00;;;5.18;;
71312;SDS011;59104;44.738;20.612;2022-08-19T10:00:21;7.60;;;5.20;;
71312;SDS011;59104;44.738;20.612;2022-08-19T10:02:47;6.38;;;5.13;;
71312;SDS011;59104;44.738;20.612;2022-08-19T10:05:12;10.30;;;5.20;;
71312;SDS011;59104;44.738;20.612;2022-08-19T10:07:56;6.85;;;5.45;;
71312;SDS011;59104;44.738;20.612;2022-08-19T10:10:22;6.43;;;5.63;;
71312;SDS011;59104;44.738;20.612;2022-08-19T10:12:48;6.82;;;5.28;;
71312;SDS011;59104;44.738;20.612;2022-08-19T10:15:13;5.57;;;4.97;;
71312;SDS011;59104;44.738;20.612;2022-08-19T10:17:39;7.20;;;5.15;;
71312;SDS011;59104;44.738;20.612;2022-08-19T10:20:05;5.70;;;5.10;;
71312;SDS011;59104;44.738;20.612;2022-08-19T10:22:31;5.97;;;5.38;;
71312;SDS011;59104;44.738;20.612;2022-08-19T10:24:56;6.13;;;5.38;;
71312;SDS011;59104;44.738;20.612;2022-08-19T10:27:22;6.25;;;5.63;;
71312;SDS011;59104;44.738;20.612;2022-08-19T10:29:48;5.93;;;4.97;;
71312;SDS011;59104;44.738;20.612;2022-08-19T10:32:14;6.40;;;4.80;;
71312;SDS011;59104;44.738;20.612;2022-08-19T10:34:40;6.50;;;5.15;;
71312;SDS011;59104;44.738;20.612;2022-08-19T10:37:06;6.43;;;5.53;;
71312;SDS011;59104;44.738;20.612;2022-08-19T10:39:34;7.03;;;5.07;;
71312;SDS011;59104;44.738;20.612;2022-08-19T10:42:04;12.45;;;5.57;;
71312;SDS011;59104;44.738;20.612;2022-08-19T10:44:29;6.57;;;5.43;;
71312;SDS011;59104;44.738;20.612;2022-08-19T10:46:56;5.50;;;4.70;;
71312;SDS011;59104;44.738;20.612;2022-08-19T10:49:23;7.57;;;4.85;;
71312;SDS011;59104;44.738;20.612;2022-08-19T10:51:49;5.43;;;4.60;;
71312;SDS011;59104;44.738;20.612;2022-08-19T10:54:33;7.45;;;4.55;;
71312;SDS011;59104;44.738;20.612;2022-08-19T10:57:17;6.57;;;4.82;;
71312;SDS011;59104;44.738;20.612;2022-08-19T10:59:43;6.72;;;4.78;;
71312;SDS011;59104;44.738;20.612;2022-08-19T11:02:09;5.32;;;4.28;;
71312;SDS011;59104;44.738;20.612;2022-08-19T11:04:35;7.47;;;5.15;;
71312;SDS011;59104;44.738;20.612;2022-08-19T11:07:01;5.07;;;4.03;;
71312;SDS011;59104;44.738;20.612;2022-08-19T11:09:28;5.38;;;4.88;;
71312;SDS011;59104;44.738;20.612;2022-08-19T11:11:53;6.68;;;4.88;;
71312;SDS011;59104;44.738;20.612;2022-08-19T11:14:20;5.00;;;4.32;;
71312;SDS011;59104;44.738;20.612;2022-08-19T11:16:49;6.22;;;4.70;;
71312;SDS011;59104;44.738;20.612;2022-08-19T11:19:16;5.35;;;4.22;;
71312;SDS011;59104;44.738;20.612;2022-08-19T11:21:45;5.22;;;4.72;;
71312;SDS011;59104;44.738;20.612;2022-08-19T11:24:12;4.88;;;4.40;;
71312;SDS011;59104;44.738;20.612;2022-08-19T11:26:39;5.72;;;4.13;;
71312;SDS011;59104;44.738;20.612;2022-08-19T11:29:05;5.80;;;4.68;;
71312;SDS011;59104;44.738;20.612;2022-08-19T11:31:32;6.20;;;4.35;;
71312;SDS011;59104;44.738;20.612;2022-08-19T11:33:58;5.53;;;4.53;;
71312;SDS011;59104;44.738;20.612;2022-08-19T11:36:24;6.18;;;4.63;;
71312;SDS011;59104;44.738;20.612;2022-08-19T11:38:50;5.82;;;4.53;;
71312;SDS011;59104;44.738;20.612;2022-08-19T11:41:17;4.57;;;4.13;;
71312;SDS011;59104;44.738;20.612;2022-08-19T11:43:43;4.85;;;4.30;;
71312;SDS011;59104;44.738;20.612;2022-08-19T11:46:11;5.63;;;4.43;;
71312;SDS011;59104;44.738;20.612;2022-08-19T11:48:37;6.50;;;4.15;;
71312;SDS011;59104;44.738;20.612;2022-08-19T11:51:07;5.05;;;4.28;;
71312;SDS011;59104;44.738;20.612;2022-08-19T11:53:32;4.88;;;3.88;;
71312;SDS011;59104;44.738;20.612;2022-08-19T11:55:58;4.57;;;4.18;;
71312;SDS011;59104;44.738;20.612;2022-08-19T11:58:23;5.68;;;4.07;;
71312;SDS011;59104;44.738;20.612;2022-08-19T12:00:50;5.00;;;4.50;;
71312;SDS011;59104;44.738;20.612;2022-08-19T12:03:15;4.28;;;3.72;;
71312;SDS011;59104;44.738;20.612;2022-08-19T12:05:41;5.05;;;3.72;;
71312;SDS011;59104;44.738;20.612;2022-08-19T12:08:07;5.50;;;4.18;;
71312;SDS011;59104;44.738;20.612;2022-08-19T12:10:33;4.82;;;4.30;;
71312;SDS011;59104;44.738;20.612;2022-08-19T12:12:59;4.40;;;4.00;;
71312;SDS011;59104;44.738;20.612;2022-08-19T12:15:25;5.50;;;4.22;;
71312;SDS011;59104;44.738;20.612;2022-08-19T12:17:52;5.75;;;4.35;;
71312;SDS011;59104;44.738;20.612;2022-08-19T12:20:20;6.07;;;4.03;;
71312;SDS011;59104;44.738;20.612;2022-08-19T12:22:45;5.53;;;3.60;;
71312;SDS011;59104;44.738;20.612;2022-08-19T12:25:11;4.22;;;3.53;;
71312;SDS011;59104;44.738;20.612;2022-08-19T12:27:38;4.80;;;4.30;;
71312;SDS011;59104;44.738;20.612;2022-08-19T12:30:05;4.90;;;4.40;;
71312;SDS011;59104;44.738;20.612;2022-08-19T12:32:31;4.35;;;3.95;;
71312;SDS011;59104;44.738;20.612;2022-08-19T12:34:56;4.95;;;3.97;;
71312;SDS011;59104;44.738;20.612;2022-08-19T12:37:22;6.15;;;3.90;;
71312;SDS011;59104;44.738;20.612;2022-08-19T12:39:48;4.72;;;3.38;;
71312;SDS011;59104;44.738;20.612;2022-08-19T12:42:13;4.28;;;3.70;;
71312;SDS011;59104;44.738;20.612;2022-08-19T12:44:40;5.65;;;4.32;;
71312;SDS011;59104;44.738;20.612;2022-08-19T12:47:06;5.53;;;3.75;;
71312;SDS011;59104;44.738;20.612;2022-08-19T12:49:33;4.10;;;3.70;;
71312;SDS011;59104;44.738;20.612;2022-08-19T12:52:02;3.83;;;3.40;;
71312;SDS011;59104;44.738;20.612;2022-08-19T12:54:28;5.43;;;3.75;;
71312;SDS011;59104;44.738;20.612;2022-08-19T12:56:55;4.05;;;3.10;;
71312;SDS011;59104;44.738;20.612;2022-08-19T12:59:20;3.65;;;3.28;;
71312;SDS011;59104;44.738;20.612;2022-08-19T13:01:46;5.57;;;3.30;;
71312;SDS011;59104;44.738;20.612;2022-08-19T13:04:11;4.80;;;3.05;;
71312;SDS011;59104;44.738;20.612;2022-08-19T13:06:37;4.88;;;3.92;;
71312;SDS011;59104;44.738;20.612;2022-08-19T13:09:03;3.95;;;3.42;;
71312;SDS011;59104;44.738;20.612;2022-08-19T13:11:28;3.60;;;3.30;;
71312;SDS011;59104;44.738;20.612;2022-08-19T13:13:57;4.20;;;3.47;;
71312;SDS011;59104;44.738;20.612;2022-08-19T13:16:23;4.38;;;3.53;;
71312;SDS011;59104;44.738;20.612;2022-08-19T13:18:49;4.88;;;3.20;;
71312;SDS011;59104;44.738;20.612;2022-08-19T13:21:18;3.75;;;2.97;;
71312;SDS011;59104;44.738;20.612;2022-08-19T13:23:45;5.43;;;3.22;;
71312;SDS011;59104;44.738;20.612;2022-08-19T13:26:11;3.75;;;3.00;;
71312;SDS011;59104;44.738;20.612;2022-08-19T13:28:37;6.05;;;3.67;;
71312;SDS011;59104;44.738;20.612;2022-08-19T13:31:22;4.60;;;3.17;;
71312;SDS011;59104;44.738;20.612;2022-08-19T13:34:06;4.50;;;2.40;;
71312;SDS011;59104;44.738;20.612;2022-08-19T13:36:32;3.63;;;2.90;;
71312;SDS011;59104;44.738;20.612;2022-08-19T13:38:59;1.85;;;1.67;;
71312;SDS011;59104;44.738;20.612;2022-08-19T13:41:24;4.72;;;2.90;;
71312;SDS011;59104;44.738;20.612;2022-08-19T13:43:50;3.25;;;2.53;;
71312;SDS011;59104;44.738;20.612;2022-08-19T13:46:15;3.23;;;2.70;;
71312;SDS011;59104;44.738;20.612;2022-08-19T13:48:41;4.25;;;2.78;;
71312;SDS011;59104;44.738;20.612;2022-08-19T13:51:07;2.38;;;1.83;;
71312;SDS011;59104;44.738;20.612;2022-08-19T13:53:35;2.75;;;2.05;;
71312;SDS011;59104;44.738;20.612;2022-08-19T13:56:05;2.83;;;1.98;;
71312;SDS011;59104;44.738;20.612;2022-08-19T13:58:30;3.95;;;1.80;;
71312;SDS011;59104;44.738;20.612;2022-08-19T14:00:56;3.90;;;2.10;;
71312;SDS011;59104;44.738;20.612;2022-08-19T14:03:24;3.03;;;1.60;;
71312;SDS011;59104;44.738;20.612;2022-08-19T14:05:49;2.95;;;1.80;;
71312;SDS011;59104;44.738;20.612;2022-08-19T14:08:15;3.97;;;1.90;;
71312;SDS011;59104;44.738;20.612;2022-08-19T14:10:40;2.53;;;2.10;;
71312;SDS011;59104;44.738;20.612;2022-08-19T14:13:07;1.67;;;1.50;;
71312;SDS011;59104;44.738;20.612;2022-08-19T14:15:33;2.10;;;1.52;;
71312;SDS011;59104;44.738;20.612;2022-08-19T14:17:58;2.28;;;1.85;;
71312;SDS011;59104;44.738;20.612;2022-08-19T14:20:24;1.65;;;1.30;;
71312;SDS011;59104;44.738;20.612;2022-08-19T14:22:50;2.13;;;1.58;;
71312;SDS011;59104;44.738;20.612;2022-08-19T14:25:16;2.25;;;1.55;;
71312;SDS011;59104;44.738;20.612;2022-08-19T14:27:42;2.13;;;1.50;;
71312;SDS011;59104;44.738;20.612;2022-08-19T14:30:09;5.10;;;1.98;;
71312;SDS011;59104;44.738;20.612;2022-08-19T14:32:35;3.65;;;2.20;;
71312;SDS011;59104;44.738;20.612;2022-08-19T14:35:01;2.77;;;2.00;;
71312;SDS011;59104;44.738;20.612;2022-08-19T14:37:26;3.38;;;2.00;;
71312;SDS011;59104;44.738;20.612;2022-08-19T14:39:52;5.35;;;2.45;;